ADDS METAR Data INFO
IDs: Format: Raw Decoded Include TAF

Data at: 0749 UTC 23 Jul 2018

KPGD 230728Z AUTO 09005KT 10SM SCT021 SCT080 BKN110 24/22 A2990 RMK AO2 LTG DSNT NW-E T02440222
KPGD 230653Z AUTO 05007KT 10SM FEW014 OVC018 25/22 A2990 RMK AO2 LTG DSNT E AND NW SLP125 T02500222
KPGD 230626Z AUTO 05012G18KT 10SM BKN019 BKN024 26/23 A2990 RMK AO2 LTG DSNT NE AND E T02610233
KPGD 230553Z AUTO 06003KT 10SM SCT020 SCT026 BKN036 27/24 A2990 RMK AO2 LTG DSNT N-E SLP125 60026 T02670239 10311 20256 58009
KPGD 230453Z AUTO 14003KT 10SM FEW020 FEW043 SCT120 26/23 A2992 RMK AO2 LTG DSNT N AND NE SLP131 T02560228 403390256
KPGD 230353Z AUTO 13006KT 8SM FEW021 FEW028 SCT110 28/26 A2992 RMK AO2 LTG DSNT E AND SE RAB01E13 TSB08E30 SLP131 P0001 T02780256
KPGD 230330Z AUTO 19004KT 10SM VCTS SCT023 SCT032 BKN065 28/25 A2992 RMK AO2 LTG DSNT SE RAB01E13 TSB08E30 P0001 T02830250
KPGD 230311Z AUTO 00000KT 10SM -TSRA BKN025 BKN044 OVC065 28/25 A2992 RMK AO2 LTG DSNT E RAB01 TSB08 CIG 020V032 P0000 T02830250
KPGD 230253Z AUTO 35003KT 10SM SCT023 BKN031 OVC038 28/25 A2993 RMK AO2 RAB12E41 SLP134 P0025 60025 T02830250 51010
KPGD 230238Z AUTO 00000KT 10SM -RA FEW020 BKN030 OVC110 28/25 A2992 RMK AO2 RAB12 P0025 T02780250
KPGD 230231Z AUTO 30005KT 2SM -RA FEW022 BKN028 OVC080 28/25 A2993 RMK AO2 RAB12 P0025 T02780250
KPGD 230224Z AUTO 04003KT 3/4SM +RA BKN026 BKN039 BKN110 28/26 A2992 RMK AO2 RAB12 P0024 T02830256
KPGD 230219Z AUTO 23005KT 1 3/4SM +RA SCT035 BKN042 BKN110 29/26 A2992 RMK AO2 RAB12 P0012 T02940256
KPGD 230153Z AUTO 00000KT 10SM BKN110 30/24 A2992 RMK AO2 SLP131 T03000244
KPGD 230053Z AUTO 27004KT 10SM CLR 30/24 A2991 RMK AO2 SLP127 T03000244
KPGD 222353Z 28012KT 10SM FEW027 SCT034 31/24 A2990 RMK AO2 SLP124 T03110239 10339 20311 52001
KPGD 222253Z 26013KT 10SM FEW027 SCT032 32/24 A2989 RMK AO2 SLP123 T03170244
KPGD 222153Z 27012KT 10SM FEW031 32/24 A2990 RMK AO2 SLP124 T03220239
KPGD 222053Z 25013KT 10SM FEW029 33/24 A2989 RMK AO2 SLP123 T03330239 58005
KPGD 221953Z 28015KT 10SM BKN032 BKN041 33/24 A2990 RMK AO2 SLP125 T03330244
KPGD 221853Z 26014G20KT 10SM SCT030 33/24 A2991 RMK AO2 SLP128 T03330239
KPGD 221848Z 25016KT 10SM SCT030 BKN036 33/24 A2991 RMK AO2
KPGD 221836Z 25013KT 10SM BKN029 33/24 A2991 RMK AO2 T03330244
KPGD 221753Z 28011G21KT 10SM SCT040 33/24 A2992 RMK AO2 SLP133 T03330244 10333 20289 58018
KPGD 221653Z 28009KT 10SM CLR 32/22 A2995 RMK AO2 LTG DSNT SE SLP141 T03170217
KPGD 221628Z 28014G25KT 10SM FEW028 SCT045 SCT075 31/20 A2996 RMK AO2 T03110200
KPGD 221613Z 30013KT 10SM VCTS CLR 33/24 A2997 RMK AO2 LTG DSNT W T03330244
KPGD 221553Z 28011KT 10SM SCT029 SCT036 33/24 A2997 RMK AO2 LTG DSNT W SLP150 T03280239
KPGD 221453Z 29009KT 10SM FEW025 SCT039 32/25 A2998 RMK AO2 LTG DSNT N SLP151 T03220250 51006
KPGD 221353Z 28009KT 10SM CLR 31/25 A2997 RMK AO2 SLP150 T03110250
KPGD 221253Z 28006KT 10SM CLR 30/25 A2997 RMK AO2 SLP148 T03000250
KPGD 221153Z 27004KT 10SM FEW027 29/25 A2996 RMK AO2 SLP144 70068 T02890250 10289 20267 53011
KPGD 221053Z 26004KT 9SM CLR 28/25 A2994 RMK AO2 SLP140 T02780250
KPGD 220953Z 26004KT 10SM CLR 28/24 A2993 RMK AO2 SLP136 T02780244
KPGD 220853Z AUTO 22004KT 10SM CLR 27/24 A2992 RMK AO2 SLP133 T02720244 56015
KPGD 220753Z AUTO 24003KT 10SM CLR 27/24 A2994 RMK AO2 SLP138 T02720244
KPGD 220653Z AUTO 25003KT 10SM CLR 27/25 A2996 RMK AO2 SLP144 T02720250
KPGD 220553Z AUTO 28003KT 10SM FEW021 28/25 A2997 RMK AO2 SLP149 T02780250 10283 20261 50003
KPGD 220453Z AUTO 28004KT 10SM CLR 27/25 A2998 RMK AO2 SLP151 T02720250 403170239
KPGD 220353Z AUTO 27006KT 10SM CLR 28/25 A2997 RMK AO2 SLP150 T02780250
KPGD 220253Z AUTO 24004KT 10SM CLR 28/25 A2996 RMK AO2 SLP146 T02830250 55004
KPGD 220153Z AUTO 24007KT 10SM CLR 28/25 A2995 RMK AO2 SLP141 T02830250
KPGD 220053Z AUTO 21006KT 10SM CLR 27/25 A2995 RMK AO2 SLP143 T02720250
KPGD 212353Z 18006KT 10SM FEW030 26/24 A2997 RMK AO2 RAE2257 SLP150 P0000 60031 T02610239 10311 20239 55012
KPGD 212253Z 17006KT 10SM -RA FEW080 SCT110 25/23 A2997 RMK AO2 LTG DSNT NE AND E TSE18 SLP149 P0001 T02500228
KPGD 212236Z 13006KT 10SM -RA FEW065 FEW085 BKN110 25/23 A2997 RMK AO2 LTG DSNT NE-SE TSE18 P0001 T02500228
KPGD 212224Z 12005KT 10SM VCTS -RA FEW060 SCT090 SCT110 25/23 A2998 RMK AO2 LTG DSNT NE-S TSE18 P0001 T02500228
KPGD 212153Z 08005KT 10SM -TSRA FEW019 25/23 A2999 RMK AO2 LTG DSNT ALQDS TSE48B53 SLP157 P0001 T02500228
KPGD 212112Z 18005KT 10SM -TSRA FEW022 SCT035 SCT050 26/22 A3001 RMK AO2 LTG DSNT ALQDS P0000 T02560222
KPGD 212100Z 28004KT 6SM -TSRA BKN025 BKN045 OVC075 25/22 A3000 RMK AO2 LTG DSNT ALQDS P0000 T02500217
KPGD 212053Z 30008KT 2 1/2SM -TSRA BKN028 OVC039 25/22 A3001 RMK AO2 PK WND 31040/2034 WSHFT 2024 LTG DSNT ALQDS RAB26 TSB20 SLP162 P0029 60029 T02500217 53007
KPGD 212044Z 31013G35KT 1SM +TSRA FEW028 SCT037 BKN039 24/21 A3002 RMK AO2 PK WND 31040/2034 WSHFT 2024 LTG DSNT ALQDS RAB26 TSB20 PRESRR P0027 T02440206
KPGD 212034Z 31033G40KT 1SM +TSRA FEW028 SCT037 BKN039 25/21 A3000 RMK AO2 PK WND 31040/2034 LTG DSNT ALQDS RAB26 TSB20 P0007 T02500206
KPGD 212026Z 28011KT 10SM -TSRA FEW028 SCT037 BKN070 29/24 A3000 RMK AO2 LTG DSNT ALQDS RAB26 TSB20 P0000 T02890239
KPGD 211953Z 27011KT 10SM VCTS FEW023 SCT031 BKN070 31/24 A2997 RMK AO2 LTG DSNT NE AND E AND SW SLP149 T03110244